sensor_id;sensor_type;location;lat;lon;timestamp;P1;durP1;ratioP1;P2;durP2;ratioP2
21777;SDS011;11050;52.222;20.916;2023-01-20T00:01:43;68.27;;;27.40;;
21777;SDS011;11050;52.222;20.916;2023-01-20T00:04:12;65.90;;;27.87;;
21777;SDS011;11050;52.222;20.916;2023-01-20T00:06:39;67.27;;;28.03;;
21777;SDS011;11050;52.222;20.916;2023-01-20T00:09:05;58.43;;;25.70;;
21777;SDS011;11050;52.222;20.916;2023-01-20T00:11:31;65.10;;;26.97;;
21777;SDS011;11050;52.222;20.916;2023-01-20T00:13:58;67.60;;;27.67;;
21777;SDS011;11050;52.222;20.916;2023-01-20T00:16:26;65.63;;;26.77;;
21777;SDS011;11050;52.222;20.916;2023-01-20T00:18:53;57.07;;;23.70;;
21777;SDS011;11050;52.222;20.916;2023-01-20T00:21:19;59.57;;;24.47;;
21777;SDS011;11050;52.222;20.916;2023-01-20T00:23:46;56.77;;;22.73;;
21777;SDS011;11050;52.222;20.916;2023-01-20T00:26:14;56.87;;;23.47;;
21777;SDS011;11050;52.222;20.916;2023-01-20T00:28:45;56.23;;;21.70;;
21777;SDS011;11050;52.222;20.916;2023-01-20T00:31:17;61.23;;;23.90;;
21777;SDS011;11050;52.222;20.916;2023-01-20T00:33:47;55.77;;;23.87;;
21777;SDS011;11050;52.222;20.916;2023-01-20T00:36:15;60.43;;;23.73;;
21777;SDS011;11050;52.222;20.916;2023-01-20T00:38:43;57.30;;;23.77;;
21777;SDS011;11050;52.222;20.916;2023-01-20T00:41:09;50.47;;;22.27;;
21777;SDS011;11050;52.222;20.916;2023-01-20T00:43:35;59.73;;;24.17;;
21777;SDS011;11050;52.222;20.916;2023-01-20T00:46:02;57.43;;;23.77;;
21777;SDS011;11050;52.222;20.916;2023-01-20T00:48:29;57.17;;;23.83;;
21777;SDS011;11050;52.222;20.916;2023-01-20T00:50:56;54.27;;;23.13;;
21777;SDS011;11050;52.222;20.916;2023-01-20T00:53:21;60.27;;;25.20;;
21777;SDS011;11050;52.222;20.916;2023-01-20T00:55:47;58.03;;;24.97;;
21777;SDS011;11050;52.222;20.916;2023-01-20T00:58:13;57.73;;;24.57;;
21777;SDS011;11050;52.222;20.916;2023-01-20T01:00:39;61.77;;;25.27;;
21777;SDS011;11050;52.222;20.916;2023-01-20T01:03:05;52.77;;;23.53;;
21777;SDS011;11050;52.222;20.916;2023-01-20T01:05:31;58.73;;;23.70;;
21777;SDS011;11050;52.222;20.916;2023-01-20T01:07:57;55.77;;;22.53;;
21777;SDS011;11050;52.222;20.916;2023-01-20T01:10:23;56.70;;;23.97;;
21777;SDS011;11050;52.222;20.916;2023-01-20T01:12:49;58.43;;;23.63;;
21777;SDS011;11050;52.222;20.916;2023-01-20T01:15:15;57.20;;;22.67;;
21777;SDS011;11050;52.222;20.916;2023-01-20T01:17:41;50.40;;;22.37;;
21777;SDS011;11050;52.222;20.916;2023-01-20T01:20:09;64.43;;;25.00;;
21777;SDS011;11050;52.222;20.916;2023-01-20T01:22:37;58.23;;;23.10;;
21777;SDS011;11050;52.222;20.916;2023-01-20T01:25:03;55.40;;;23.17;;
21777;SDS011;11050;52.222;20.916;2023-01-20T01:27:30;52.10;;;21.90;;
21777;SDS011;11050;52.222;20.916;2023-01-20T01:29:55;56.37;;;23.97;;
21777;SDS011;11050;52.222;20.916;2023-01-20T01:32:21;58.23;;;22.57;;
21777;SDS011;11050;52.222;20.916;2023-01-20T01:34:48;50.70;;;21.43;;
21777;SDS011;11050;52.222;20.916;2023-01-20T01:37:14;52.03;;;21.60;;
21777;SDS011;11050;52.222;20.916;2023-01-20T01:39:39;61.07;;;23.30;;
21777;SDS011;11050;52.222;20.916;2023-01-20T01:42:12;54.97;;;23.07;;
21777;SDS011;11050;52.222;20.916;2023-01-20T01:47:35;51.03;;;22.13;;
21777;SDS011;11050;52.222;20.916;2023-01-20T01:50:04;52.93;;;21.40;;
21777;SDS011;11050;52.222;20.916;2023-01-20T01:52:34;51.63;;;20.93;;
21777;SDS011;11050;52.222;20.916;2023-01-20T01:55:00;51.17;;;21.23;;
21777;SDS011;11050;52.222;20.916;2023-01-20T01:57:28;43.27;;;20.03;;
21777;SDS011;11050;52.222;20.916;2023-01-20T01:59:56;48.27;;;20.93;;
21777;SDS011;11050;52.222;20.916;2023-01-20T02:02:22;51.43;;;21.23;;
21777;SDS011;11050;52.222;20.916;2023-01-20T02:04:48;48.53;;;21.40;;
21777;SDS011;11050;52.222;20.916;2023-01-20T02:07:14;50.80;;;20.30;;
21777;SDS011;11050;52.222;20.916;2023-01-20T02:09:44;53.33;;;21.50;;
21777;SDS011;11050;52.222;20.916;2023-01-20T02:12:11;50.07;;;20.93;;
21777;SDS011;11050;52.222;20.916;2023-01-20T02:14:48;49.90;;;19.70;;
21777;SDS011;11050;52.222;20.916;2023-01-20T02:20:02;51.33;;;20.60;;
21777;SDS011;11050;52.222;20.916;2023-01-20T02:31:57;47.70;;;18.80;;
21777;SDS011;11050;52.222;20.916;2023-01-20T02:34:51;46.27;;;19.57;;
21777;SDS011;11050;52.222;20.916;2023-01-20T02:37:27;56.23;;;21.60;;
21777;SDS011;11050;52.222;20.916;2023-01-20T02:42:59;50.83;;;20.43;;
21777;SDS011;11050;52.222;20.916;2023-01-20T02:45:38;44.40;;;18.60;;
21777;SDS011;11050;52.222;20.916;2023-01-20T02:48:20;47.43;;;19.47;;
21777;SDS011;11050;52.222;20.916;2023-01-20T02:53:50;50.33;;;20.00;;
21777;SDS011;11050;52.222;20.916;2023-01-20T02:56:24;50.20;;;20.57;;
21777;SDS011;11050;52.222;20.916;2023-01-20T03:01:29;53.83;;;21.73;;
21777;SDS011;11050;52.222;20.916;2023-01-20T03:04:04;53.57;;;20.73;;
21777;SDS011;11050;52.222;20.916;2023-01-20T03:06:35;50.83;;;21.23;;
21777;SDS011;11050;52.222;20.916;2023-01-20T03:09:07;49.87;;;20.60;;
21777;SDS011;11050;52.222;20.916;2023-01-20T03:11:40;53.73;;;20.43;;
21777;SDS011;11050;52.222;20.916;2023-01-20T03:14:15;50.57;;;20.20;;
21777;SDS011;11050;52.222;20.916;2023-01-20T03:16:42;50.37;;;20.03;;
21777;SDS011;11050;52.222;20.916;2023-01-20T03:19:12;50.03;;;20.53;;
21777;SDS011;11050;52.222;20.916;2023-01-20T03:21:41;59.27;;;22.07;;
21777;SDS011;11050;52.222;20.916;2023-01-20T03:24:07;50.33;;;20.90;;
21777;SDS011;11050;52.222;20.916;2023-01-20T03:26:33;53.40;;;20.57;;
21777;SDS011;11050;52.222;20.916;2023-01-20T03:29:05;55.50;;;21.40;;
21777;SDS011;11050;52.222;20.916;2023-01-20T03:31:40;56.17;;;21.17;;
21777;SDS011;11050;52.222;20.916;2023-01-20T03:34:13;55.13;;;20.93;;
21777;SDS011;11050;52.222;20.916;2023-01-20T03:36:43;62.27;;;22.27;;
21777;SDS011;11050;52.222;20.916;2023-01-20T03:39:11;52.67;;;20.20;;
21777;SDS011;11050;52.222;20.916;2023-01-20T03:41:44;59.60;;;21.63;;
21777;SDS011;11050;52.222;20.916;2023-01-20T03:44:31;58.30;;;22.07;;
21777;SDS011;11050;52.222;20.916;2023-01-20T03:52:51;62.40;;;22.90;;
21777;SDS011;11050;52.222;20.916;2023-01-20T03:55:32;58.50;;;22.90;;
21777;SDS011;11050;52.222;20.916;2023-01-20T03:58:06;61.03;;;21.90;;
21777;SDS011;11050;52.222;20.916;2023-01-20T04:00:41;62.63;;;22.07;;
21777;SDS011;11050;52.222;20.916;2023-01-20T04:03:18;69.07;;;25.50;;
21777;SDS011;11050;52.222;20.916;2023-01-20T04:05:50;67.27;;;23.17;;
21777;SDS011;11050;52.222;20.916;2023-01-20T04:08:17;63.87;;;23.83;;
21777;SDS011;11050;52.222;20.916;2023-01-20T04:10:49;69.93;;;24.70;;
21777;SDS011;11050;52.222;20.916;2023-01-20T04:13:19;70.33;;;23.10;;
21777;SDS011;11050;52.222;20.916;2023-01-20T04:15:45;66.53;;;24.27;;
21777;SDS011;11050;52.222;20.916;2023-01-20T04:18:11;70.63;;;24.83;;
21777;SDS011;11050;52.222;20.916;2023-01-20T04:20:38;71.17;;;24.30;;
21777;SDS011;11050;52.222;20.916;2023-01-20T04:23:05;58.60;;;22.00;;
21777;SDS011;11050;52.222;20.916;2023-01-20T04:25:37;57.90;;;20.47;;
21777;SDS011;11050;52.222;20.916;2023-01-20T04:28:03;63.30;;;23.07;;
21777;SDS011;11050;52.222;20.916;2023-01-20T04:30:28;64.13;;;22.80;;
21777;SDS011;11050;52.222;20.916;2023-01-20T04:32:54;62.67;;;22.10;;
21777;SDS011;11050;52.222;20.916;2023-01-20T04:35:20;64.87;;;22.17;;
21777;SDS011;11050;52.222;20.916;2023-01-20T04:37:46;68.13;;;23.03;;
21777;SDS011;11050;52.222;20.916;2023-01-20T04:40:11;57.43;;;20.93;;
21777;SDS011;11050;52.222;20.916;2023-01-20T04:42:37;62.93;;;21.33;;
21777;SDS011;11050;52.222;20.916;2023-01-20T04:45:03;60.87;;;21.30;;
21777;SDS011;11050;52.222;20.916;2023-01-20T04:47:30;52.97;;;19.83;;
21777;SDS011;11050;52.222;20.916;2023-01-20T04:49:57;56.93;;;19.83;;
21777;SDS011;11050;52.222;20.916;2023-01-20T04:52:24;64.03;;;22.93;;
21777;SDS011;11050;52.222;20.916;2023-01-20T04:54:49;55.70;;;19.73;;
21777;SDS011;11050;52.222;20.916;2023-01-20T04:57:15;65.33;;;22.60;;
21777;SDS011;11050;52.222;20.916;2023-01-20T04:59:41;61.10;;;22.53;;
21777;SDS011;11050;52.222;20.916;2023-01-20T05:02:07;54.20;;;19.57;;
21777;SDS011;11050;52.222;20.916;2023-01-20T05:04:33;66.63;;;22.83;;
21777;SDS011;11050;52.222;20.916;2023-01-20T05:06:59;58.63;;;21.47;;
21777;SDS011;11050;52.222;20.916;2023-01-20T05:09:24;64.57;;;22.27;;
21777;SDS011;11050;52.222;20.916;2023-01-20T05:11:50;70.87;;;23.27;;
21777;SDS011;11050;52.222;20.916;2023-01-20T05:14:16;70.30;;;22.33;;
21777;SDS011;11050;52.222;20.916;2023-01-20T05:16:42;61.53;;;22.47;;
21777;SDS011;11050;52.222;20.916;2023-01-20T05:19:09;71.27;;;23.83;;
21777;SDS011;11050;52.222;20.916;2023-01-20T05:21:36;70.43;;;24.63;;
21777;SDS011;11050;52.222;20.916;2023-01-20T05:24:01;79.80;;;27.30;;
21777;SDS011;11050;52.222;20.916;2023-01-20T05:26:28;67.07;;;23.30;;
21777;SDS011;11050;52.222;20.916;2023-01-20T05:28:53;66.97;;;24.37;;
21777;SDS011;11050;52.222;20.916;2023-01-20T05:31:19;81.77;;;25.87;;
21777;SDS011;11050;52.222;20.916;2023-01-20T05:33:45;76.10;;;25.23;;
21777;SDS011;11050;52.222;20.916;2023-01-20T05:36:11;78.57;;;24.70;;
21777;SDS011;11050;52.222;20.916;2023-01-20T05:38:37;82.47;;;25.00;;
21777;SDS011;11050;52.222;20.916;2023-01-20T05:41:03;73.73;;;24.43;;
21777;SDS011;11050;52.222;20.916;2023-01-20T05:43:32;76.73;;;25.63;;
21777;SDS011;11050;52.222;20.916;2023-01-20T05:45:58;74.80;;;24.57;;
21777;SDS011;11050;52.222;20.916;2023-01-20T05:48:24;89.53;;;25.70;;
21777;SDS011;11050;52.222;20.916;2023-01-20T05:50:50;85.23;;;27.20;;
21777;SDS011;11050;52.222;20.916;2023-01-20T05:53:16;94.13;;;27.43;;
21777;SDS011;11050;52.222;20.916;2023-01-20T05:55:43;91.77;;;27.80;;
21777;SDS011;11050;52.222;20.916;2023-01-20T05:58:10;84.83;;;25.30;;
21777;SDS011;11050;52.222;20.916;2023-01-20T06:00:36;81.03;;;26.10;;
21777;SDS011;11050;52.222;20.916;2023-01-20T06:03:02;89.73;;;26.73;;
21777;SDS011;11050;52.222;20.916;2023-01-20T06:05:28;94.53;;;28.03;;
21777;SDS011;11050;52.222;20.916;2023-01-20T06:07:54;92.50;;;27.27;;
21777;SDS011;11050;52.222;20.916;2023-01-20T06:10:21;85.17;;;25.57;;
21777;SDS011;11050;52.222;20.916;2023-01-20T06:12:55;78.23;;;25.43;;
21777;SDS011;11050;52.222;20.916;2023-01-20T06:15:22;91.83;;;26.70;;
21777;SDS011;11050;52.222;20.916;2023-01-20T06:17:49;95.70;;;26.90;;
21777;SDS011;11050;52.222;20.916;2023-01-20T06:20:16;87.90;;;27.07;;
21777;SDS011;11050;52.222;20.916;2023-01-20T06:22:43;92.90;;;27.37;;
21777;SDS011;11050;52.222;20.916;2023-01-20T06:25:09;76.07;;;24.47;;
21777;SDS011;11050;52.222;20.916;2023-01-20T06:27:35;92.27;;;25.77;;
21777;SDS011;11050;52.222;20.916;2023-01-20T06:30:01;83.93;;;24.87;;
21777;SDS011;11050;52.222;20.916;2023-01-20T06:32:31;79.23;;;23.97;;
21777;SDS011;11050;52.222;20.916;2023-01-20T06:34:57;74.03;;;24.10;;
21777;SDS011;11050;52.222;20.916;2023-01-20T06:37:23;82.43;;;25.30;;
21777;SDS011;11050;52.222;20.916;2023-01-20T06:39:48;81.47;;;23.40;;
21777;SDS011;11050;52.222;20.916;2023-01-20T06:42:14;71.20;;;23.13;;
21777;SDS011;11050;52.222;20.916;2023-01-20T06:44:40;77.00;;;24.90;;
21777;SDS011;11050;52.222;20.916;2023-01-20T06:47:06;76.23;;;24.80;;
21777;SDS011;11050;52.222;20.916;2023-01-20T06:49:31;81.67;;;24.10;;
21777;SDS011;11050;52.222;20.916;2023-01-20T06:51:57;75.90;;;23.47;;
21777;SDS011;11050;52.222;20.916;2023-01-20T06:54:24;80.00;;;24.60;;
21777;SDS011;11050;52.222;20.916;2023-01-20T06:56:51;75.03;;;23.20;;
21777;SDS011;11050;52.222;20.916;2023-01-20T06:59:16;65.80;;;21.23;;
21777;SDS011;11050;52.222;20.916;2023-01-20T07:01:42;75.10;;;23.20;;
21777;SDS011;11050;52.222;20.916;2023-01-20T07:04:09;68.43;;;23.40;;
21777;SDS011;11050;52.222;20.916;2023-01-20T07:06:38;70.53;;;22.60;;
21777;SDS011;11050;52.222;20.916;2023-01-20T07:09:09;66.83;;;23.27;;
21777;SDS011;11050;52.222;20.916;2023-01-20T07:11:36;77.93;;;23.20;;
21777;SDS011;11050;52.222;20.916;2023-01-20T07:14:03;71.53;;;24.10;;
21777;SDS011;11050;52.222;20.916;2023-01-20T07:16:30;66.20;;;23.23;;
21777;SDS011;11050;52.222;20.916;2023-01-20T07:18:56;70.67;;;22.37;;
21777;SDS011;11050;52.222;20.916;2023-01-20T07:21:22;63.30;;;21.67;;
21777;SDS011;11050;52.222;20.916;2023-01-20T07:23:49;62.73;;;22.13;;
21777;SDS011;11050;52.222;20.916;2023-01-20T07:26:16;61.43;;;22.10;;
21777;SDS011;11050;52.222;20.916;2023-01-20T07:28:46;58.67;;;21.43;;
21777;SDS011;11050;52.222;20.916;2023-01-20T07:33:41;64.37;;;21.53;;
21777;SDS011;11050;52.222;20.916;2023-01-20T07:36:07;65.80;;;22.33;;
21777;SDS011;11050;52.222;20.916;2023-01-20T07:38:34;64.33;;;22.50;;
21777;SDS011;11050;52.222;20.916;2023-01-20T07:41:01;60.53;;;21.83;;
21777;SDS011;11050;52.222;20.916;2023-01-20T07:43:31;59.90;;;22.33;;
21777;SDS011;11050;52.222;20.916;2023-01-20T07:46:01;54.43;;;22.33;;
21777;SDS011;11050;52.222;20.916;2023-01-20T07:48:29;54.23;;;20.47;;
21777;SDS011;11050;52.222;20.916;2023-01-20T07:50:58;59.20;;;20.70;;
21777;SDS011;11050;52.222;20.916;2023-01-20T07:53:31;62.97;;;21.17;;
21777;SDS011;11050;52.222;20.916;2023-01-20T07:56:05;60.93;;;22.63;;
21777;SDS011;11050;52.222;20.916;2023-01-20T07:58:46;61.67;;;22.30;;
21777;SDS011;11050;52.222;20.916;2023-01-20T08:01:15;57.50;;;21.53;;
21777;SDS011;11050;52.222;20.916;2023-01-20T08:03:50;57.80;;;21.57;;
21777;SDS011;11050;52.222;20.916;2023-01-20T08:06:17;58.00;;;21.10;;
21777;SDS011;11050;52.222;20.916;2023-01-20T08:08:46;53.40;;;21.80;;
21777;SDS011;11050;52.222;20.916;2023-01-20T08:11:13;54.33;;;22.17;;
21777;SDS011;11050;52.222;20.916;2023-01-20T08:13:41;62.13;;;23.40;;
21777;SDS011;11050;52.222;20.916;2023-01-20T08:16:08;61.20;;;24.40;;
21777;SDS011;11050;52.222;20.916;2023-01-20T08:18:37;52.27;;;21.93;;
21777;SDS011;11050;52.222;20.916;2023-01-20T08:21:04;54.50;;;22.23;;
21777;SDS011;11050;52.222;20.916;2023-01-20T08:23:35;53.27;;;21.73;;
21777;SDS011;11050;52.222;20.916;2023-01-20T08:26:02;46.33;;;19.97;;
21777;SDS011;11050;52.222;20.916;2023-01-20T08:28:31;44.57;;;19.77;;
21777;SDS011;11050;52.222;20.916;2023-01-20T08:31:09;45.47;;;18.07;;
21777;SDS011;11050;52.222;20.916;2023-01-20T08:33:38;44.33;;;19.23;;
21777;SDS011;11050;52.222;20.916;2023-01-20T08:36:12;47.97;;;18.77;;
21777;SDS011;11050;52.222;20.916;2023-01-20T08:38:48;47.87;;;19.53;;
21777;SDS011;11050;52.222;20.916;2023-01-20T08:41:21;46.63;;;18.93;;
21777;SDS011;11050;52.222;20.916;2023-01-20T08:43:51;45.43;;;17.80;;
21777;SDS011;11050;52.222;20.916;2023-01-20T08:46:18;38.67;;;17.50;;
21777;SDS011;11050;52.222;20.916;2023-01-20T08:48:45;43.27;;;17.10;;
21777;SDS011;11050;52.222;20.916;2023-01-20T08:51:18;45.77;;;17.93;;
21777;SDS011;11050;52.222;20.916;2023-01-20T08:53:55;46.47;;;19.67;;
21777;SDS011;11050;52.222;20.916;2023-01-20T08:56:21;42.70;;;17.27;;
21777;SDS011;11050;52.222;20.916;2023-01-20T08:58:48;44.10;;;18.37;;
21777;SDS011;11050;52.222;20.916;2023-01-20T09:01:18;40.13;;;17.63;;
21777;SDS011;11050;52.222;20.916;2023-01-20T09:03:47;46.90;;;18.70;;
21777;SDS011;11050;52.222;20.916;2023-01-20T09:06:13;47.83;;;18.13;;
21777;SDS011;11050;52.222;20.916;2023-01-20T09:08:39;37.53;;;16.57;;
21777;SDS011;11050;52.222;20.916;2023-01-20T09:11:07;40.37;;;17.33;;
21777;SDS011;11050;52.222;20.916;2023-01-20T09:13:40;40.73;;;17.70;;
21777;SDS011;11050;52.222;20.916;2023-01-20T09:16:06;42.50;;;18.30;;
21777;SDS011;11050;52.222;20.916;2023-01-20T09:18:35;39.63;;;17.67;;
21777;SDS011;11050;52.222;20.916;2023-01-20T09:21:01;45.90;;;18.93;;
21777;SDS011;11050;52.222;20.916;2023-01-20T09:23:30;45.70;;;18.83;;
21777;SDS011;11050;52.222;20.916;2023-01-20T09:25:59;43.13;;;17.80;;
21777;SDS011;11050;52.222;20.916;2023-01-20T09:28:26;40.33;;;17.10;;
21777;SDS011;11050;52.222;20.916;2023-01-20T09:30:56;39.67;;;17.33;;
21777;SDS011;11050;52.222;20.916;2023-01-20T09:33:30;50.23;;;19.03;;
21777;SDS011;11050;52.222;20.916;2023-01-20T09:36:00;41.50;;;17.40;;
21777;SDS011;11050;52.222;20.916;2023-01-20T09:38:27;43.73;;;19.23;;
21777;SDS011;11050;52.222;20.916;2023-01-20T09:53:08;51.43;;;16.90;;
21777;SDS011;11050;52.222;20.916;2023-01-20T09:55:58;38.57;;;15.63;;
21777;SDS011;11050;52.222;20.916;2023-01-20T10:01:33;48.93;;;17.37;;
21777;SDS011;11050;52.222;20.916;2023-01-20T10:06:43;43.77;;;17.70;;
21777;SDS011;11050;52.222;20.916;2023-01-20T10:15:00;38.33;;;14.03;;
21777;SDS011;11050;52.222;20.916;2023-01-20T10:25:58;39.50;;;14.73;;
21777;SDS011;11050;52.222;20.916;2023-01-20T10:28:41;33.83;;;15.37;;
21777;SDS011;11050;52.222;20.916;2023-01-20T10:31:16;34.03;;;15.13;;
21777;SDS011;11050;52.222;20.916;2023-01-20T10:33:52;33.47;;;15.60;;
21777;SDS011;11050;52.222;20.916;2023-01-20T10:36:29;37.10;;;15.83;;
21777;SDS011;11050;52.222;20.916;2023-01-20T10:39:10;37.90;;;15.80;;
21777;SDS011;11050;52.222;20.916;2023-01-20T10:42:09;38.63;;;17.03;;
21777;SDS011;11050;52.222;20.916;2023-01-20T10:44:39;40.50;;;16.17;;
21777;SDS011;11050;52.222;20.916;2023-01-20T10:47:27;37.27;;;17.73;;
21777;SDS011;11050;52.222;20.916;2023-01-20T10:53:02;38.30;;;16.47;;
21777;SDS011;11050;52.222;20.916;2023-01-20T10:58:50;36.03;;;16.60;;
21777;SDS011;11050;52.222;20.916;2023-01-20T11:01:16;41.10;;;16.93;;
21777;SDS011;11050;52.222;20.916;2023-01-20T11:03:43;36.13;;;17.23;;
21777;SDS011;11050;52.222;20.916;2023-01-20T11:06:22;37.33;;;17.70;;
21777;SDS011;11050;52.222;20.916;2023-01-20T11:08:51;36.43;;;17.03;;
21777;SDS011;11050;52.222;20.916;2023-01-20T11:11:22;34.97;;;16.57;;
21777;SDS011;11050;52.222;20.916;2023-01-20T11:13:50;41.93;;;18.20;;
21777;SDS011;11050;52.222;20.916;2023-01-20T11:16:19;40.60;;;17.67;;
21777;SDS011;11050;52.222;20.916;2023-01-20T11:21:28;38.17;;;17.03;;
21777;SDS011;11050;52.222;20.916;2023-01-20T11:23:57;40.30;;;17.63;;
21777;SDS011;11050;52.222;20.916;2023-01-20T11:26:34;37.13;;;17.03;;
21777;SDS011;11050;52.222;20.916;2023-01-20T11:29:03;35.07;;;16.90;;
21777;SDS011;11050;52.222;20.916;2023-01-20T11:31:54;37.30;;;17.57;;
21777;SDS011;11050;52.222;20.916;2023-01-20T11:39:30;39.23;;;17.20;;
21777;SDS011;11050;52.222;20.916;2023-01-20T11:42:08;36.97;;;17.93;;
21777;SDS011;11050;52.222;20.916;2023-01-20T11:44:48;36.80;;;17.00;;
21777;SDS011;11050;52.222;20.916;2023-01-20T11:47:24;34.03;;;15.87;;
21777;SDS011;11050;52.222;20.916;2023-01-20T12:00:31;28.90;;;15.60;;
21777;SDS011;11050;52.222;20.916;2023-01-20T12:08:52;27.47;;;15.47;;
21777;SDS011;11050;52.222;20.916;2023-01-20T12:11:32;29.03;;;14.43;;
21777;SDS011;11050;52.222;20.916;2023-01-20T12:14:23;29.50;;;13.67;;
21777;SDS011;11050;52.222;20.916;2023-01-20T12:22:22;28.80;;;13.60;;
21777;SDS011;11050;52.222;20.916;2023-01-20T12:25:03;27.20;;;12.87;;
21777;SDS011;11050;52.222;20.916;2023-01-20T12:27:50;24.97;;;12.50;;
21777;SDS011;11050;52.222;20.916;2023-01-20T12:30:35;28.07;;;12.87;;
21777;SDS011;11050;52.222;20.916;2023-01-20T12:33:55;28.10;;;13.33;;
21777;SDS011;11050;52.222;20.916;2023-01-20T12:43:04;30.63;;;14.40;;
21777;SDS011;11050;52.222;20.916;2023-01-20T12:48:42;29.67;;;13.93;;
21777;SDS011;11050;52.222;20.916;2023-01-20T13:15:22;21.07;;;10.73;;
21777;SDS011;11050;52.222;20.916;2023-01-20T13:20:59;24.53;;;11.70;;
21777;SDS011;11050;52.222;20.916;2023-01-20T13:23:28;24.20;;;12.60;;
21777;SDS011;11050;52.222;20.916;2023-01-20T13:25:59;24.43;;;13.43;;
21777;SDS011;11050;52.222;20.916;2023-01-20T13:28:29;28.03;;;13.17;;
21777;SDS011;11050;52.222;20.916;2023-01-20T13:30:56;26.37;;;13.30;;
21777;SDS011;11050;52.222;20.916;2023-01-20T13:33:29;27.87;;;13.53;;
21777;SDS011;11050;52.222;20.916;2023-01-20T13:38:41;27.33;;;13.70;;
21777;SDS011;11050;52.222;20.916;2023-01-20T13:41:08;28.57;;;14.13;;
21777;SDS011;11050;52.222;20.916;2023-01-20T13:43:36;27.47;;;13.80;;
21777;SDS011;11050;52.222;20.916;2023-01-20T13:51:42;24.20;;;12.63;;
21777;SDS011;11050;52.222;20.916;2023-01-20T13:56:54;24.37;;;12.77;;
21777;SDS011;11050;52.222;20.916;2023-01-20T13:59:52;26.43;;;14.27;;
21777;SDS011;11050;52.222;20.916;2023-01-20T14:02:23;27.33;;;14.93;;
21777;SDS011;11050;52.222;20.916;2023-01-20T14:04:50;21.53;;;12.17;;
21777;SDS011;11050;52.222;20.916;2023-01-20T14:07:20;20.60;;;12.23;;
21777;SDS011;11050;52.222;20.916;2023-01-20T14:09:53;25.97;;;13.47;;
21777;SDS011;11050;52.222;20.916;2023-01-20T14:12:21;25.60;;;12.30;;
21777;SDS011;11050;52.222;20.916;2023-01-20T14:14:50;25.23;;;12.97;;
21777;SDS011;11050;52.222;20.916;2023-01-20T14:17:20;25.13;;;12.07;;
21777;SDS011;11050;52.222;20.916;2023-01-20T14:19:49;29.37;;;13.07;;
21777;SDS011;11050;52.222;20.916;2023-01-20T14:24:53;24.67;;;12.83;;
21777;SDS011;11050;52.222;20.916;2023-01-20T14:27:28;25.17;;;11.90;;
21777;SDS011;11050;52.222;20.916;2023-01-20T14:32:50;21.40;;;11.03;;
21777;SDS011;11050;52.222;20.916;2023-01-20T14:35:30;22.70;;;11.53;;
21777;SDS011;11050;52.222;20.916;2023-01-20T14:37:58;21.77;;;11.60;;
21777;SDS011;11050;52.222;20.916;2023-01-20T14:40:28;22.50;;;12.20;;
21777;SDS011;11050;52.222;20.916;2023-01-20T14:43:03;21.00;;;10.63;;
21777;SDS011;11050;52.222;20.916;2023-01-20T14:45:43;20.33;;;10.80;;
21777;SDS011;11050;52.222;20.916;2023-01-20T14:48:13;20.20;;;10.07;;
21777;SDS011;11050;52.222;20.916;2023-01-20T14:50:40;22.57;;;11.70;;
21777;SDS011;11050;52.222;20.916;2023-01-20T14:53:12;21.53;;;10.10;;
21777;SDS011;11050;52.222;20.916;2023-01-20T14:55:41;20.50;;;10.70;;
21777;SDS011;11050;52.222;20.916;2023-01-20T14:58:25;18.10;;;9.73;;
21777;SDS011;11050;52.222;20.916;2023-01-20T15:00:54;19.07;;;10.60;;
21777;SDS011;11050;52.222;20.916;2023-01-20T15:03:27;20.13;;;10.93;;
21777;SDS011;11050;52.222;20.916;2023-01-20T15:22:18;21.43;;;10.10;;
21777;SDS011;11050;52.222;20.916;2023-01-20T15:24:46;22.20;;;10.67;;
21777;SDS011;11050;52.222;20.916;2023-01-20T15:32:27;25.77;;;12.33;;
21777;SDS011;11050;52.222;20.916;2023-01-20T15:34:53;27.60;;;12.73;;
21777;SDS011;11050;52.222;20.916;2023-01-20T15:37:19;28.13;;;13.83;;
21777;SDS011;11050;52.222;20.916;2023-01-20T15:39:45;24.97;;;12.60;;
21777;SDS011;11050;52.222;20.916;2023-01-20T15:42:11;27.17;;;12.80;;
21777;SDS011;11050;52.222;20.916;2023-01-20T15:44:39;31.23;;;14.23;;
21777;SDS011;11050;52.222;20.916;2023-01-20T15:47:38;32.50;;;15.70;;
21777;SDS011;11050;52.222;20.916;2023-01-20T15:49:58;31.10;;;14.60;;
21777;SDS011;11050;52.222;20.916;2023-01-20T15:52:24;30.53;;;14.70;;
21777;SDS011;11050;52.222;20.916;2023-01-20T15:54:50;32.13;;;15.50;;
21777;SDS011;11050;52.222;20.916;2023-01-20T15:57:16;31.10;;;14.90;;
21777;SDS011;11050;52.222;20.916;2023-01-20T15:59:42;31.40;;;14.80;;
21777;SDS011;11050;52.222;20.916;2023-01-20T16:02:20;32.30;;;16.02;;
21777;SDS011;11050;52.222;20.916;2023-01-20T16:04:47;33.47;;;15.90;;
21777;SDS011;11050;52.222;20.916;2023-01-20T16:07:15;32.73;;;14.70;;
21777;SDS011;11050;52.222;20.916;2023-01-20T16:09:43;33.03;;;15.70;;
21777;SDS011;11050;52.222;20.916;2023-01-20T16:12:14;33.17;;;15.23;;
21777;SDS011;11050;52.222;20.916;2023-01-20T16:14:42;31.00;;;14.70;;
21777;SDS011;11050;52.222;20.916;2023-01-20T16:17:12;28.50;;;14.27;;
21777;SDS011;11050;52.222;20.916;2023-01-20T16:19:49;31.87;;;14.97;;
21777;SDS011;11050;52.222;20.916;2023-01-20T16:22:15;31.33;;;14.80;;
21777;SDS011;11050;52.222;20.916;2023-01-20T16:24:41;32.70;;;15.50;;
21777;SDS011;11050;52.222;20.916;2023-01-20T16:27:18;34.33;;;16.67;;
21777;SDS011;11050;52.222;20.916;2023-01-20T16:29:46;32.63;;;16.73;;
21777;SDS011;11050;52.222;20.916;2023-01-20T16:32:13;31.20;;;14.70;;
21777;SDS011;11050;52.222;20.916;2023-01-20T16:34:39;28.93;;;13.47;;
21777;SDS011;11050;52.222;20.916;2023-01-20T16:37:05;27.93;;;13.27;;
21777;SDS011;11050;52.222;20.916;2023-01-20T16:39:31;28.03;;;13.07;;
21777;SDS011;11050;52.222;20.916;2023-01-20T16:41:57;27.27;;;12.30;;
21777;SDS011;11050;52.222;20.916;2023-01-20T16:44:23;24.07;;;12.40;;
21777;SDS011;11050;52.222;20.916;2023-01-20T16:46:48;23.90;;;10.53;;
21777;SDS011;11050;52.222;20.916;2023-01-20T16:49:14;23.93;;;11.67;;
21777;SDS011;11050;52.222;20.916;2023-01-20T16:51:41;22.37;;;11.20;;
21777;SDS011;11050;52.222;20.916;2023-01-20T16:54:07;19.90;;;9.53;;
21777;SDS011;11050;52.222;20.916;2023-01-20T16:56:33;21.13;;;9.90;;
21777;SDS011;11050;52.222;20.916;2023-01-20T16:59:00;19.30;;;9.87;;
21777;SDS011;11050;52.222;20.916;2023-01-20T17:01:27;19.63;;;10.03;;
21777;SDS011;11050;52.222;20.916;2023-01-20T17:03:56;19.97;;;9.40;;
21777;SDS011;11050;52.222;20.916;2023-01-20T17:06:25;20.10;;;8.57;;
21777;SDS011;11050;52.222;20.916;2023-01-20T17:08:55;18.20;;;9.97;;
21777;SDS011;11050;52.222;20.916;2023-01-20T17:11:34;20.30;;;10.50;;
21777;SDS011;11050;52.222;20.916;2023-01-20T17:14:03;21.70;;;11.00;;
21777;SDS011;11050;52.222;20.916;2023-01-20T17:16:32;22.07;;;11.53;;
21777;SDS011;11050;52.222;20.916;2023-01-20T17:18:59;22.07;;;12.20;;